createdAt,value
2018-07-15T00:00:46.562Z,22.74
2018-07-15T00:03:15.098Z,22.70
2018-07-15T00:05:43.742Z,22.75
2018-07-15T00:08:12.451Z,22.78
2018-07-15T00:10:43.459Z,22.76
2018-07-15T00:13:12.540Z,22.72
2018-07-15T00:15:41.566Z,22.68
2018-07-15T00:18:10.063Z,22.58
2018-07-15T00:20:38.515Z,22.13
2018-07-15T00:23:07.643Z,21.67
2018-07-15T00:25:36.398Z,21.08
2018-07-15T00:28:05.044Z,20.84
2018-07-15T00:30:33.691Z,20.58
2018-07-15T00:33:02.307Z,20.35
2018-07-15T00:35:30.819Z,20.21
2018-07-15T00:37:59.423Z,20.14
2018-07-15T00:40:28.210Z,20.14
2018-07-15T00:42:57.046Z,20.17
2018-07-15T00:45:25.648Z,20.21
2018-07-15T00:47:54.232Z,20.31
2018-07-15T00:50:22.704Z,20.40
2018-07-15T00:52:51.196Z,20.50
2018-07-15T00:55:19.741Z,20.50
2018-07-15T00:57:48.203Z,20.55
2018-07-15T01:00:20.830Z,20.51
2018-07-15T01:02:49.334Z,20.44
2018-07-15T01:05:17.893Z,20.44
2018-07-15T01:07:46.346Z,20.38
2018-07-15T01:10:15.199Z,20.35
2018-07-15T01:12:43.743Z,20.34
2018-07-15T01:15:12.196Z,20.28
2018-07-15T01:17:40.815Z,20.26
2018-07-15T01:20:09.522Z,20.21
2018-07-15T01:22:39.306Z,20.31
2018-07-15T01:25:08.022Z,20.35
2018-07-15T01:27:36.550Z,20.35
2018-07-15T01:30:05.171Z,20.34
2018-07-15T01:32:33.842Z,20.26
2018-07-15T01:35:02.303Z,20.19
2018-07-15T01:37:30.903Z,20.17
2018-07-15T01:39:59.338Z,20.13
2018-07-15T01:42:28.022Z,20.30
2018-07-15T01:44:56.742Z,20.31
2018-07-15T01:47:25.704Z,20.32
2018-07-15T01:49:54.738Z,20.32
2018-07-15T01:52:23.368Z,20.35
2018-07-15T01:54:52.458Z,20.44
2018-07-15T02:03:03.956Z,20.33
2018-07-15T02:05:32.538Z,20.26
2018-07-15T02:08:00.991Z,20.22
2018-07-15T02:10:29.469Z,20.17
2018-07-15T02:12:57.981Z,20.14
2018-07-15T02:15:26.571Z,20.14
2018-07-15T02:17:55.054Z,20.14
2018-07-15T02:20:23.631Z,20.20
2018-07-15T02:22:52.198Z,20.14
2018-07-15T02:25:20.855Z,20.21
2018-07-15T02:27:49.362Z,20.25
2018-07-15T02:30:17.851Z,20.33
2018-07-15T02:32:46.318Z,20.22
2018-07-15T02:35:14.787Z,20.22
2018-07-15T02:37:43.323Z,20.20
2018-07-15T02:40:11.755Z,20.22
2018-07-15T02:42:40.705Z,20.27
2018-07-15T02:45:09.247Z,20.22
2018-07-15T02:47:37.816Z,20.25
2018-07-15T02:50:06.448Z,20.25
2018-07-15T02:52:35.288Z,20.25
2018-07-15T02:55:03.815Z,20.16
2018-07-15T02:57:32.342Z,20.10
2018-07-15T03:00:00.823Z,20.07
2018-07-15T03:02:29.272Z,20.12
2018-07-15T03:04:57.773Z,20.08
2018-07-15T03:07:26.327Z,20.09
2018-07-15T03:09:54.843Z,20.08
2018-07-15T03:12:23.356Z,20.04
2018-07-15T03:14:51.786Z,20.18
2018-07-15T03:17:20.666Z,20.22
2018-07-15T03:19:49.165Z,20.22
2018-07-15T03:22:17.820Z,20.18
2018-07-15T03:24:46.426Z,20.22
2018-07-15T03:27:15.019Z,20.12
2018-07-15T03:29:43.523Z,20.13
2018-07-15T03:32:12.007Z,20.13
2018-07-15T03:34:40.511Z,20.11
2018-07-15T03:37:08.935Z,20.06
2018-07-15T03:39:37.431Z,20.05
2018-07-15T03:42:06.178Z,20.15
2018-07-15T03:44:34.601Z,20.19
2018-07-15T03:47:03.071Z,20.20
2018-07-15T03:49:31.573Z,20.16
2018-07-15T03:52:00.038Z,20.08
2018-07-15T03:54:28.636Z,20.03
2018-07-15T03:56:57.077Z,19.96
2018-07-15T03:59:25.683Z,19.95
2018-07-15T04:01:54.174Z,19.90
2018-07-15T04:04:22.670Z,19.82
2018-07-15T04:06:51.186Z,19.91
2018-07-15T04:09:19.725Z,19.88
2018-07-15T04:11:48.272Z,19.87
2018-07-15T04:14:17.887Z,19.91
2018-07-15T04:16:46.699Z,19.84
2018-07-15T04:19:15.995Z,19.73
2018-07-15T04:21:44.695Z,19.58
2018-07-15T04:24:13.179Z,19.52
2018-07-15T04:26:41.738Z,19.65
2018-07-15T04:29:10.244Z,19.90
2018-07-15T04:31:38.841Z,19.87
2018-07-15T04:34:07.368Z,19.84
2018-07-15T04:36:35.899Z,19.77
2018-07-15T04:39:05.380Z,19.69
2018-07-15T04:41:33.871Z,19.62
2018-07-15T04:44:02.359Z,19.57
2018-07-15T04:46:30.839Z,19.58
2018-07-15T04:48:59.472Z,19.54
2018-07-15T04:51:28.188Z,19.55
2018-07-15T04:53:56.691Z,19.61
2018-07-15T04:56:25.308Z,19.67
2018-07-15T04:58:54.097Z,19.73
2018-07-15T05:01:22.718Z,19.80
2018-07-15T05:03:51.250Z,19.92
2018-07-15T05:06:19.763Z,20.03
2018-07-15T05:08:48.404Z,20.15
2018-07-15T05:11:16.926Z,20.22
2018-07-15T05:13:45.519Z,20.30
2018-07-15T05:16:14.103Z,20.40
2018-07-15T05:18:42.726Z,20.44
2018-07-15T05:21:11.254Z,20.51
2018-07-15T05:23:39.687Z,20.47
2018-07-15T05:26:08.286Z,20.52
2018-07-15T05:28:36.943Z,20.57
2018-07-15T05:31:05.774Z,20.59
2018-07-15T05:33:34.218Z,20.64
2018-07-15T05:36:06.713Z,20.68
2018-07-15T05:38:35.176Z,20.73
2018-07-15T05:41:03.760Z,20.77
2018-07-15T05:43:32.483Z,20.85
2018-07-15T05:46:00.962Z,20.91
2018-07-15T05:48:29.560Z,21.00
2018-07-15T05:50:58.127Z,21.04
2018-07-15T05:53:26.627Z,21.15
2018-07-15T05:55:55.098Z,21.21
2018-07-15T05:58:23.882Z,21.23
2018-07-15T06:00:52.434Z,21.25
2018-07-15T06:03:21.010Z,21.31
2018-07-15T06:05:49.438Z,21.37
2018-07-15T06:08:17.970Z,21.43
2018-07-15T06:10:46.692Z,21.52
2018-07-15T06:13:15.157Z,21.58
2018-07-15T06:15:43.823Z,21.68
2018-07-15T06:18:12.358Z,21.72
2018-07-15T06:20:40.972Z,21.82
2018-07-15T06:23:09.643Z,21.85
2018-07-15T06:25:38.179Z,21.87
2018-07-15T06:28:06.667Z,21.92
2018-07-15T06:30:35.162Z,22.02
2018-07-15T06:33:03.879Z,22.14
2018-07-15T06:35:32.594Z,22.31
2018-07-15T06:38:01.112Z,22.45
2018-07-15T06:40:29.718Z,22.50
2018-07-15T06:42:58.199Z,22.61
2018-07-15T06:45:26.798Z,22.73
2018-07-15T06:47:55.215Z,22.76
2018-07-15T06:50:23.738Z,22.91
2018-07-15T06:52:52.259Z,23.02
2018-07-15T06:55:20.906Z,23.06
2018-07-15T06:57:49.495Z,23.20
2018-07-15T07:00:18.007Z,23.23
2018-07-15T07:02:46.727Z,23.31
2018-07-15T07:05:15.824Z,23.33
2018-07-15T07:07:44.517Z,23.34
2018-07-15T07:10:12.937Z,23.43
2018-07-15T07:12:41.566Z,23.51
2018-07-15T07:15:10.119Z,23.58
2018-07-15T07:17:38.662Z,23.68
2018-07-15T07:20:07.160Z,23.72
2018-07-15T07:22:36.290Z,23.82
2018-07-15T07:25:04.963Z,23.82
2018-07-15T07:27:33.541Z,23.89
2018-07-15T07:30:02.125Z,24.01
2018-07-15T07:32:30.797Z,24.11
2018-07-15T07:34:59.234Z,24.24
2018-07-15T07:37:27.831Z,24.29
2018-07-15T07:39:56.459Z,24.33
2018-07-15T07:42:25.067Z,24.40
2018-07-15T07:44:53.641Z,24.52
2018-07-15T07:47:22.334Z,24.42
2018-07-15T07:49:50.867Z,24.44
2018-07-15T07:52:19.415Z,24.54
2018-07-15T07:54:47.954Z,24.68
2018-07-15T07:57:16.449Z,24.90
2018-07-15T07:59:44.988Z,25.02
2018-07-15T08:02:13.721Z,25.05
2018-07-15T08:04:42.590Z,25.07
2018-07-15T08:07:11.325Z,25.02
2018-07-15T08:09:40.033Z,25.18
2018-07-15T08:12:08.558Z,25.23
2018-07-15T08:14:37.025Z,25.23
2018-07-15T08:17:05.490Z,25.38
2018-07-15T08:19:34.020Z,25.46
2018-07-15T08:22:02.600Z,25.62
2018-07-15T08:24:31.023Z,25.66
2018-07-15T08:26:59.523Z,25.70
2018-07-15T08:29:28.083Z,25.73
2018-07-15T08:31:56.562Z,25.74
2018-07-15T08:34:25.067Z,25.80
2018-07-15T08:36:53.534Z,25.91
2018-07-15T08:39:22.235Z,26.21
2018-07-15T08:41:50.714Z,26.25
2018-07-15T08:44:19.219Z,26.57
2018-07-15T08:46:47.650Z,26.96
2018-07-15T08:49:16.177Z,27.13
2018-07-15T08:51:44.629Z,27.01
2018-07-15T08:54:13.275Z,27.23
2018-07-15T08:56:42.048Z,27.42
2018-07-15T08:59:10.530Z,27.61
2018-07-15T09:01:39.014Z,27.64
2018-07-15T09:04:07.564Z,27.95
2018-07-15T09:06:36.060Z,28.04
2018-07-15T09:09:04.998Z,28.14
2018-07-15T09:11:33.541Z,28.26
2018-07-15T09:14:02.198Z,28.31
2018-07-15T09:16:30.895Z,28.19
2018-07-15T09:18:59.410Z,28.34
2018-07-15T09:21:27.970Z,28.57
2018-07-15T09:23:56.616Z,28.76
2018-07-15T09:26:25.198Z,28.81
2018-07-15T09:28:53.728Z,28.93
2018-07-15T09:31:22.164Z,29.05
2018-07-15T09:33:50.783Z,29.26
2018-07-15T09:36:19.364Z,29.52
2018-07-15T09:38:47.850Z,29.47
2018-07-15T09:41:16.318Z,29.45
2018-07-15T09:43:44.850Z,29.84
2018-07-15T09:46:13.312Z,30.18
2018-07-15T09:48:41.761Z,30.39
2018-07-15T09:51:10.253Z,30.87
2018-07-15T09:53:38.771Z,31.57
2018-07-15T09:56:07.423Z,31.85
2018-07-15T09:58:36.047Z,32.13
2018-07-15T10:01:04.563Z,32.57
2018-07-15T10:03:33.043Z,32.94
2018-07-15T10:06:01.575Z,33.79
2018-07-15T10:08:30.119Z,34.25
2018-07-15T10:10:58.681Z,33.87
2018-07-15T10:13:27.347Z,33.86
2018-07-15T10:15:55.846Z,34.49
2018-07-15T10:18:24.363Z,34.71
2018-07-15T10:20:52.908Z,35.26
2018-07-15T10:23:25.443Z,35.93
2018-07-15T10:25:54.114Z,35.65
2018-07-15T10:28:22.606Z,36.02
2018-07-15T10:30:51.105Z,36.10
2018-07-15T10:33:19.695Z,36.00
2018-07-15T10:35:48.051Z,35.88
2018-07-15T10:38:16.535Z,35.90
2018-07-15T10:40:45.002Z,35.67
2018-07-15T10:43:13.643Z,35.24
2018-07-15T10:45:42.281Z,35.98
2018-07-15T10:48:10.904Z,36.41
2018-07-15T10:50:39.452Z,36.59
2018-07-15T10:53:09.022Z,36.46
2018-07-15T10:55:37.588Z,35.91
2018-07-15T10:58:06.242Z,35.94
2018-07-15T11:00:34.715Z,35.85
2018-07-15T11:03:03.178Z,36.05
2018-07-15T11:05:31.678Z,36.72
2018-07-15T11:08:00.239Z,37.04
2018-07-15T11:10:28.985Z,37.69
2018-07-15T11:12:57.682Z,37.92
2018-07-15T11:15:26.296Z,39.04
2018-07-15T11:17:55.079Z,39.54
2018-07-15T11:20:23.709Z,38.62
2018-07-15T11:22:52.340Z,38.94
2018-07-15T11:25:20.866Z,38.93
2018-07-15T11:27:49.491Z,39.41
2018-07-15T11:30:17.970Z,39.72
2018-07-15T11:32:46.462Z,40.37
2018-07-15T11:35:15.052Z,40.61
2018-07-15T11:37:43.839Z,40.06
2018-07-15T11:40:12.347Z,40.45
2018-07-15T11:42:40.975Z,41.21
2018-07-15T11:45:09.487Z,41.02
2018-07-15T11:47:38.068Z,41.09
2018-07-15T11:50:07.067Z,41.42
2018-07-15T11:52:35.556Z,41.25
2018-07-15T11:55:04.251Z,42.11
2018-07-15T11:57:32.818Z,41.06
2018-07-15T12:00:01.415Z,41.87
2018-07-15T12:02:29.983Z,41.84
2018-07-15T12:04:58.444Z,42.41
2018-07-15T12:07:27.015Z,42.54
2018-07-15T12:09:55.483Z,41.86
2018-07-15T12:12:23.970Z,41.88
2018-07-15T12:14:52.622Z,42.45
2018-07-15T12:17:21.144Z,43.79
2018-07-15T12:19:50.016Z,43.69
2018-07-15T12:22:18.857Z,43.78
2018-07-15T12:24:48.400Z,44.93
2018-07-15T12:27:16.947Z,44.00
2018-07-15T12:29:45.580Z,43.91
2018-07-15T12:32:14.491Z,41.38
2018-07-15T12:34:43.031Z,41.74
2018-07-15T12:37:11.718Z,43.56
2018-07-15T12:39:40.592Z,44.26
2018-07-15T12:42:09.282Z,43.89
2018-07-15T12:44:37.990Z,44.84
2018-07-15T12:47:06.532Z,43.25
2018-07-15T12:49:35.030Z,39.21
2018-07-15T12:52:03.555Z,36.79
2018-07-15T12:54:32.178Z,35.60
2018-07-15T12:57:00.664Z,34.85
2018-07-15T12:59:29.191Z,34.32
2018-07-15T13:01:57.734Z,34.17
2018-07-15T13:04:26.296Z,34.17
2018-07-15T13:06:54.906Z,33.87
2018-07-15T13:09:23.380Z,33.18
2018-07-15T13:11:55.799Z,31.54
2018-07-15T13:14:24.355Z,30.13
2018-07-15T13:16:52.853Z,29.72
2018-07-15T13:19:21.471Z,29.07
2018-07-15T13:21:50.089Z,28.98
2018-07-15T13:24:19.021Z,29.05
2018-07-15T13:26:47.847Z,28.74
2018-07-15T13:29:16.570Z,28.52
2018-07-15T13:31:45.214Z,28.38
2018-07-15T13:34:13.835Z,27.97
2018-07-15T13:36:42.357Z,27.62
2018-07-15T13:39:11.035Z,27.42
2018-07-15T13:41:40.095Z,27.57
2018-07-15T13:44:08.555Z,27.57
2018-07-15T13:46:37.182Z,27.74
2018-07-15T13:49:05.994Z,27.85
2018-07-15T13:51:34.608Z,27.55
2018-07-15T13:54:03.087Z,26.98
2018-07-15T13:56:31.805Z,26.72
2018-07-15T13:59:00.743Z,26.90
2018-07-15T14:01:29.310Z,27.04
2018-07-15T14:03:57.814Z,27.68
2018-07-15T14:06:26.538Z,28.33
2018-07-15T14:08:55.283Z,31.30
2018-07-15T14:11:23.816Z,34.46
2018-07-15T14:13:52.289Z,34.33
2018-07-15T14:16:21.003Z,31.56
2018-07-15T14:18:49.546Z,30.30
2018-07-15T14:21:18.567Z,29.13
2018-07-15T14:23:47.766Z,28.25
2018-07-15T14:26:16.407Z,27.38
2018-07-15T14:28:44.910Z,26.77
2018-07-15T14:31:13.817Z,26.40
2018-07-15T14:33:42.403Z,26.23
2018-07-15T14:36:10.868Z,26.14
2018-07-15T14:38:39.659Z,26.33
2018-07-15T14:41:08.138Z,26.36
2018-07-15T14:43:36.650Z,26.18
2018-07-15T14:46:05.448Z,26.08
2018-07-15T14:48:33.991Z,26.19
2018-07-15T14:51:02.513Z,26.32
2018-07-15T14:53:31.095Z,26.67
2018-07-15T14:55:59.940Z,26.99
2018-07-15T14:58:28.799Z,27.53
2018-07-15T15:00:57.331Z,28.27
2018-07-15T15:03:25.802Z,29.19
2018-07-15T15:05:54.323Z,32.47
2018-07-15T15:08:22.851Z,36.58
2018-07-15T15:10:51.663Z,37.74
2018-07-15T15:13:20.216Z,37.65
2018-07-15T15:15:49.062Z,37.91
2018-07-15T15:18:18.745Z,37.39
2018-07-15T15:20:47.407Z,34.98
2018-07-15T15:23:15.979Z,33.64
2018-07-15T15:25:44.514Z,32.19
2018-07-15T15:28:13.010Z,32.20
2018-07-15T15:30:41.631Z,32.17
2018-07-15T15:33:10.739Z,31.14
2018-07-15T15:35:39.290Z,30.29
2018-07-15T15:38:07.986Z,29.77
2018-07-15T15:40:36.764Z,29.17
2018-07-15T15:43:05.374Z,28.51
2018-07-15T15:45:34.059Z,27.99
2018-07-15T15:48:02.606Z,27.73
2018-07-15T15:50:31.162Z,27.42
2018-07-15T15:52:59.724Z,27.27
2018-07-15T15:55:28.302Z,27.30
2018-07-15T15:57:56.845Z,27.21
2018-07-15T16:00:25.499Z,26.94
2018-07-15T16:02:54.072Z,26.89
2018-07-15T16:05:22.708Z,26.81
2018-07-15T16:07:51.468Z,26.92
2018-07-15T16:10:19.952Z,27.00
2018-07-15T16:12:48.586Z,26.93
2018-07-15T16:15:17.147Z,26.64
2018-07-15T16:17:45.709Z,26.43
2018-07-15T16:20:14.255Z,26.38
2018-07-15T16:22:42.795Z,26.20
2018-07-15T16:25:11.341Z,25.90
2018-07-15T16:27:39.826Z,25.36
2018-07-15T16:30:08.571Z,24.69
2018-07-15T16:32:37.148Z,23.54
2018-07-15T16:35:05.735Z,22.89
2018-07-15T16:37:34.258Z,22.60
2018-07-15T16:40:02.796Z,22.54
2018-07-15T16:42:31.521Z,22.49
2018-07-15T16:44:59.978Z,22.36
2018-07-15T16:47:28.567Z,22.28
2018-07-15T16:49:57.349Z,22.30
2018-07-15T16:52:25.895Z,22.28
2018-07-15T16:54:54.456Z,22.15
2018-07-15T16:57:22.987Z,22.01
2018-07-15T16:59:51.509Z,21.63
2018-07-15T17:02:19.996Z,21.30
2018-07-15T17:04:48.560Z,20.93
2018-07-15T17:07:17.031Z,20.74
2018-07-15T17:09:45.601Z,20.59
2018-07-15T17:12:14.131Z,20.55
2018-07-15T17:14:42.839Z,20.50
2018-07-15T17:17:11.455Z,20.47
2018-07-15T17:19:39.990Z,20.48
2018-07-15T17:22:08.476Z,20.39
2018-07-15T17:24:36.976Z,20.35
2018-07-15T17:27:05.683Z,20.29
2018-07-15T17:29:34.224Z,20.16
2018-07-15T17:32:02.704Z,20.08
2018-07-15T17:34:31.210Z,19.99
2018-07-15T17:36:59.705Z,19.90
2018-07-15T17:39:28.395Z,19.88
2018-07-15T17:41:56.849Z,19.92
2018-07-15T17:44:25.379Z,19.99
2018-07-15T17:46:53.902Z,20.10
2018-07-15T17:49:22.533Z,20.20
2018-07-15T17:51:51.067Z,20.27
2018-07-15T17:54:19.606Z,20.32
2018-07-15T17:56:48.292Z,20.47
2018-07-15T17:59:16.955Z,20.52
2018-07-15T18:01:45.446Z,20.58
2018-07-15T18:04:13.980Z,20.65
2018-07-15T18:06:42.793Z,20.62
2018-07-15T18:09:11.278Z,20.58
2018-07-15T18:11:39.734Z,20.58
2018-07-15T18:14:08.293Z,20.54
2018-07-15T18:16:37.010Z,20.53
2018-07-15T18:19:05.650Z,20.45
2018-07-15T18:21:34.174Z,20.40
2018-07-15T18:24:02.649Z,20.35
2018-07-15T18:26:31.151Z,20.30
2018-07-15T18:28:59.819Z,20.27
2018-07-15T18:31:28.441Z,20.29
2018-07-15T18:33:56.938Z,20.33
2018-07-15T18:36:25.504Z,20.42
2018-07-15T18:38:54.043Z,20.43
2018-07-15T18:41:22.598Z,20.30
2018-07-15T18:43:51.396Z,20.28
2018-07-15T18:46:19.902Z,20.26
2018-07-15T18:48:48.648Z,20.15
2018-07-15T18:51:17.241Z,20.04
2018-07-15T18:53:45.785Z,19.88
2018-07-15T18:56:14.352Z,19.78
2018-07-15T18:58:43.126Z,19.77
2018-07-15T19:01:11.818Z,19.70
2018-07-15T19:03:40.327Z,19.68
2018-07-15T19:06:09.026Z,19.66
2018-07-15T19:08:37.483Z,19.69
2018-07-15T19:11:06.142Z,19.66
2018-07-15T19:13:34.791Z,19.65
2018-07-15T19:16:03.446Z,19.59
2018-07-15T19:18:31.968Z,19.52
2018-07-15T19:21:00.496Z,19.53
2018-07-15T19:23:29.587Z,19.50
2018-07-15T19:25:58.167Z,19.49
2018-07-15T19:28:27.097Z,19.47
2018-07-15T19:30:55.804Z,19.51
2018-07-15T19:33:24.390Z,19.55
2018-07-15T19:35:53.115Z,19.56
2018-07-15T19:38:21.835Z,19.57
2018-07-15T19:40:50.325Z,19.57
2018-07-15T19:43:18.975Z,19.58
2018-07-15T19:45:47.487Z,19.56
2018-07-15T19:48:15.987Z,19.49
2018-07-15T19:50:44.618Z,19.50
2018-07-15T19:53:13.860Z,19.40
2018-07-15T19:55:42.342Z,19.34
2018-07-15T19:58:11.071Z,19.30
2018-07-15T20:00:39.575Z,19.36
2018-07-15T20:03:08.099Z,19.45
2018-07-15T20:05:36.558Z,19.49
2018-07-15T20:08:05.398Z,19.49
2018-07-15T20:10:34.192Z,19.38
2018-07-15T20:13:02.802Z,19.36
2018-07-15T20:15:31.282Z,19.30
2018-07-15T20:17:59.879Z,19.28
2018-07-15T20:20:28.617Z,19.24
2018-07-15T20:22:57.147Z,19.18
2018-07-15T20:25:25.668Z,19.11
2018-07-15T20:27:54.208Z,19.10
2018-07-15T20:30:22.721Z,19.09
2018-07-15T20:32:51.286Z,19.06
2018-07-15T20:35:19.886Z,19.01
2018-07-15T20:37:48.371Z,18.97
2018-07-15T20:40:16.832Z,18.79
2018-07-15T20:42:45.394Z,18.76
2018-07-15T20:45:13.924Z,18.74
2018-07-15T20:47:42.462Z,18.74
2018-07-15T20:50:10.970Z,18.68
2018-07-15T20:52:39.846Z,18.66
2018-07-15T20:55:08.728Z,18.66
2018-07-15T20:57:37.831Z,18.70
2018-07-15T21:00:06.391Z,18.74
2018-07-15T21:02:35.040Z,18.78
2018-07-15T21:05:03.578Z,18.86
2018-07-15T21:07:32.437Z,18.83
2018-07-15T21:10:01.035Z,18.85
2018-07-15T21:12:30.578Z,18.90
2018-07-15T21:14:59.096Z,18.91
2018-07-15T21:17:28.672Z,18.96
2018-07-15T21:19:57.519Z,19.01
2018-07-15T21:22:26.118Z,19.03
2018-07-15T21:24:54.733Z,19.08
2018-07-15T21:27:23.265Z,19.02
2018-07-15T21:29:51.767Z,18.95
2018-07-15T21:32:20.292Z,18.95
2018-07-15T21:34:48.795Z,18.98
2018-07-15T21:37:17.394Z,19.09
2018-07-15T21:39:45.996Z,19.06
2018-07-15T21:42:14.641Z,19.07
2018-07-15T21:44:43.775Z,19.08
2018-07-15T21:47:12.298Z,19.08
2018-07-15T21:49:40.892Z,19.03
2018-07-15T21:52:09.650Z,19.09
2018-07-15T21:54:38.354Z,19.09
2018-07-15T21:57:06.820Z,19.14
2018-07-15T21:59:35.491Z,19.13
2018-07-15T22:02:04.126Z,19.18
2018-07-15T22:04:32.859Z,19.23
2018-07-15T22:07:12.640Z,19.13
2018-07-15T22:09:53.080Z,19.11
2018-07-15T22:12:21.607Z,19.09
2018-07-15T22:14:50.495Z,19.18
2018-07-15T22:17:20.099Z,19.26
2018-07-15T22:19:48.577Z,19.26
2018-07-15T22:22:17.644Z,19.25
2018-07-15T22:24:46.283Z,19.19
2018-07-15T22:27:14.986Z,19.14
2018-07-15T22:29:43.595Z,19.08
2018-07-15T22:32:12.306Z,19.02
2018-07-15T22:34:41.301Z,18.92
2018-07-15T22:37:09.764Z,18.93
2018-07-15T22:39:38.277Z,18.95
2018-07-15T22:42:06.819Z,18.98
2018-07-15T22:44:35.379Z,19.10
2018-07-15T22:47:04.000Z,19.14
2018-07-15T22:49:32.543Z,19.13
2018-07-15T22:52:01.035Z,19.20
2018-07-15T22:54:29.557Z,19.32
2018-07-15T22:56:57.999Z,19.32
2018-07-15T22:59:26.623Z,19.30
2018-07-15T23:01:55.163Z,19.30
2018-07-15T23:05:33.063Z,19.22
2018-07-15T23:08:01.855Z,18.97
2018-07-15T23:10:30.660Z,18.82
2018-07-15T23:12:59.133Z,18.62
2018-07-15T23:15:27.706Z,18.47
2018-07-15T23:17:56.217Z,18.48
2018-07-15T23:20:25.000Z,18.39
2018-07-15T23:22:53.815Z,18.32
2018-07-15T23:25:22.299Z,18.24
2018-07-15T23:27:50.738Z,18.14
2018-07-15T23:30:19.403Z,18.12
2018-07-15T23:32:48.007Z,18.12
2018-07-15T23:35:17.415Z,18.06
2018-07-15T23:37:46.113Z,17.98
2018-07-15T23:40:14.918Z,17.91
2018-07-15T23:42:43.543Z,17.87
2018-07-15T23:45:12.011Z,17.88
2018-07-15T23:47:40.474Z,17.90
2018-07-15T23:50:08.965Z,17.90
2018-07-15T23:52:37.543Z,17.88
2018-07-15T23:55:06.109Z,17.90
2018-07-15T23:57:34.629Z,17.91
